• Join FlightAware (Why Join?)
  • Login
  • US Flag 
10:32AM EDT


 

Airport Tracker/Info


-or-


 

Live Flight TrackerFlight Track Log ✈ WJA197 ✈ 28-Apr-2012 ✈ CYLW - CYYJ

Flight Track Log - Related Links

Times and Time Zones

All times are in EDT time to prevent confusion due to time zone crossing. See the WJA197 flight status page for this flight to view local times or setup timezone preferences in your user account.

Time Position Orientation Groundspeed Altitude Reporting Facility
EDT Latitude Longitude Course Direction KTS MPH feet Rate Location/Type
08:54PM 49.9138 -119.5253 149° Southeast  Level FlightAware Approximate
08:55PM 49.8500 -119.4667 258° West 200 230 7,200  Level Vancouver Center
08:56PM 49.8333 -119.5833 259° West 270 311 10,700 3,240 Climbing Vancouver Center
08:57PM 49.8167 -119.7167 246° West 310 357 13,700 3,420 Climbing Vancouver Center
08:58PM 49.7833 -119.8333 261° West 330 380 17,600 3,900 Climbing Vancouver Center
08:59PM 49.7667 -120.0000 249° West 340 391 21,500 3,180 Climbing Vancouver Center
09:00PM 49.7333 -120.1333 260° West 340 391 24,000 1,200 Climbing Vancouver Center
09:01PM 49.7167 -120.2833 249° West 340 391 24,000  Level Vancouver Center
09:02PM 49.6833 -120.4167 259° West 340 391 24,000  Level Vancouver Center
09:03PM 49.6667 -120.5500 249° West 340 391 24,000  Level Vancouver Center
09:04PM 49.6333 -120.6833 259° West 330 380 24,000  Level Vancouver Center
09:05PM 49.6167 -120.8167 251° West 330 380 24,000  Level Vancouver Center
09:06PM 49.5833 -120.9667 249° West 330 380 24,000  Level Vancouver Center
09:07PM 49.5500 -121.1000 270° West 330 380 24,000  Level Vancouver Center
09:08PM 49.5500 -121.2333 251° West 330 380 24,000  Level Vancouver Center
09:09PM 49.5167 -121.3833 249° West 340 391 24,000  Level Vancouver Center
09:10PM 49.4833 -121.5167 258° West 340 391 24,000  Level Vancouver Center
09:11PM 49.4667 -121.6333 253° West 340 391 24,000  Level Vancouver Center
09:12PM 49.4333 -121.8000 249° West 340 391 24,000  Level Vancouver Center
09:13PM 49.4000 -121.9333 260° West 340 391 24,000  Level Vancouver Center
09:14PM 49.3833 -122.0833 259° West 330 380 24,000  Level Vancouver Center
09:15PM 49.3667 -122.2167 246° West 330 380 24,000  Level Vancouver Center
09:16PM 49.3333 -122.3333 249° West 330 380 24,000 -840 Level Vancouver Center
09:17PM 49.3000 -122.4667 249° West 330 380 22,400 -1,740 Descending Vancouver Center
09:18PM 49.2667 -122.6000 249° West 320 368 20,600 -1,620 Descending Vancouver Center
09:19PM 49.2333 -122.7333 233° Southwest 310 357 19,200 -1,320 Descending Vancouver Center
09:20PM 49.1833 -122.8333 237° Southwest 320 368 18,000 -1,140 Descending Vancouver Center
09:21PM 49.1333 -122.9500 246° West 310 357 17,000 -1,200 Descending Vancouver Center
09:22PM 49.1000 -123.0667 233° Southwest 300 345 15,700 -1,500 Descending Vancouver Center
09:23PM 49.0500 -123.1667 206° Southwest 290 334 14,100 -1,380 Descending Vancouver Center
09:24PM 48.9833 -123.2167 189° South 280 322 13,000 -660 Descending Vancouver Center
09:25PM 48.9167 -123.2333 213° Southwest 270 311 12,800 -1,080 Descending Vancouver Center
09:26PM 48.8500 -123.3000 213° Southwest 270 311 10,900 -1,860 Descending Vancouver Center
09:27PM 48.7833 -123.3667 253° West 250 288 9,100 -1,740 Descending Vancouver Center
09:28PM 48.7667 -123.4500 284° West 240 276 7,500 -1,140 Descending Vancouver Center
09:29PM 48.7833 -123.5500 270° West 230 265 6,900 -600 Descending Vancouver Center
09:30PM 48.7833 -123.6500 243° Southwest 210 242 6,300 -900 Descending Vancouver Center
09:31PM 48.7667 -123.7000 192° South 200 230 5,200 -1,080 Descending Vancouver Center
09:32PM 48.7167 -123.7167 135° Southeast 180 207 4,200 -960 Descending Vancouver Center
09:33PM 48.6833 -123.6667 111° Southeast 180 207 3,300 -900 Descending Vancouver Center
09:34PM 48.6667 -123.6000 117° Southeast 180 207 2,400 -900 Descending Vancouver Center
09:35PM 48.6500 -123.5500 117° Southeast 140 161 1,600 -780 Descending Vancouver Center
09:36PM 48.6333 -123.5000 90° East 130 150 900 -660 Descending Vancouver Center
09:37PM 48.6333 -123.4500 90° East 120 138 300 -600 Descending Vancouver Center